Etusivu
METAR-TAF:

METAR-TAF

Lentoasemat :

Svolvær, Norja

Svolværin lentoasema

Leveyspiiri: 68-15N, Pituuspiiri: 014-40E, korkeus merenpinnasta: 0 m

Tämänhetkinen sää

Tämä raportti tehtiin 1 tunti ja 0 minuuttia sitten, kello 19.50 UTC
Tuuli 6 kn idästä
Lämpötila 7°C
Kosteus 57%
Ilmanpaine 1019 hPa
Näkyvyys 10 km tai enemmän
ei pilviä alle 1500 m:ssä eikä cumulonimbus-pilviä

METAR: ENSH 261950Z 08006KT CAVOK 07/M01 Q1019

Aika: 22:50 (20:50 UTC)

Sääennuste

Tämä raportti tehtiin 6 tuntia ja 50 minuuttia sitten, kello 14.00 UTC
Ennuste voimassa 26. päivästä klo 15 UTC - 26. päivään klo 20 UTC
Tuuli 8 kn eri suunnista
Näkyvyys 10 km tai enemmän
Muutamia pilviä 4000 ft:n korkeudessa

TAF: ENSH 261400Z 2615/2620 VRB08KT 9999 FEW040

Säähavainnot ja -ennusteet yli 4000 lentoasemalta (METAR- ja TAF-raportit).

Käytössä olevat sääasemat on merkitty karttaan keltaisilla ja punaisilla pisteillä.

Aseta hiiri pisteen päälle nähdäksesi sääaseman nimen.

Klikkaa sitten nähdäksesi säähavainnot ja -ennusteet.

Kartan vaihtaminen: klikkaa mustalla rastilla varustettuja vihreitä pisteitä, niin voit zoomata sisään; viivalla varustettua vihreää pistettä, niin voit zoomata ulos tai vihreitä nuolia, niin pääset viereisille kartoille.


METAR-TAF: